sensor_id;sensor_type;location;lat;lon;timestamp;temperature;humidity
8593;DHT22;4334;49.982;8.398;2023-02-01T00:00:57;5.90;99.90
8593;DHT22;4334;49.982;8.398;2023-02-01T00:03:24;5.90;99.90
8593;DHT22;4334;49.982;8.398;2023-02-01T00:05:55;5.90;99.90
8593;DHT22;4334;49.982;8.398;2023-02-01T00:08:22;5.90;99.90
8593;DHT22;4334;49.982;8.398;2023-02-01T00:10:57;9.10;99.90
8593;DHT22;4334;49.982;8.398;2023-02-01T00:13:24;6.00;99.90
8593;DHT22;4334;49.982;8.398;2023-02-01T00:15:51;6.00;99.90
8593;DHT22;4334;49.982;8.398;2023-02-01T00:18:19;7.70;99.90
8593;DHT22;4334;49.982;8.398;2023-02-01T00:20:46;5.90;99.90
8593;DHT22;4334;49.982;8.398;2023-02-01T00:23:13;5.80;99.90
8593;DHT22;4334;49.982;8.398;2023-02-01T00:25:40;5.80;99.90
8593;DHT22;4334;49.982;8.398;2023-02-01T00:28:06;5.60;99.90
8593;DHT22;4334;49.982;8.398;2023-02-01T00:30:33;5.70;99.90
8593;DHT22;4334;49.982;8.398;2023-02-01T00:33:00;5.60;99.90
8593;DHT22;4334;49.982;8.398;2023-02-01T00:35:28;5.60;99.90
8593;DHT22;4334;49.982;8.398;2023-02-01T00:37:55;5.60;99.90
8593;DHT22;4334;49.982;8.398;2023-02-01T00:40:24;5.50;99.90
8593;DHT22;4334;49.982;8.398;2023-02-01T00:42:50;5.60;99.90
8593;DHT22;4334;49.982;8.398;2023-02-01T00:45:17;5.60;99.90
8593;DHT22;4334;49.982;8.398;2023-02-01T00:47:44;5.60;99.90
8593;DHT22;4334;49.982;8.398;2023-02-01T00:50:11;5.70;99.90
8593;DHT22;4334;49.982;8.398;2023-02-01T00:52:39;5.70;99.90
8593;DHT22;4334;49.982;8.398;2023-02-01T00:55:06;5.90;99.90
8593;DHT22;4334;49.982;8.398;2023-02-01T00:57:33;5.70;99.90
8593;DHT22;4334;49.982;8.398;2023-02-01T01:00:00;5.80;99.90
8593;DHT22;4334;49.982;8.398;2023-02-01T01:02:27;5.80;99.90
8593;DHT22;4334;49.982;8.398;2023-02-01T01:04:54;5.80;99.90
8593;DHT22;4334;49.982;8.398;2023-02-01T01:07:20;5.80;99.90
8593;DHT22;4334;49.982;8.398;2023-02-01T01:09:48;5.90;99.90
8593;DHT22;4334;49.982;8.398;2023-02-01T01:12:15;5.90;99.90
8593;DHT22;4334;49.982;8.398;2023-02-01T01:14:42;8.00;99.90
8593;DHT22;4334;49.982;8.398;2023-02-01T01:17:09;5.80;99.90
8593;DHT22;4334;49.982;8.398;2023-02-01T01:19:36;5.80;99.90
8593;DHT22;4334;49.982;8.398;2023-02-01T01:22:02;5.70;99.90
8593;DHT22;4334;49.982;8.398;2023-02-01T01:24:29;5.70;99.90
8593;DHT22;4334;49.982;8.398;2023-02-01T01:26:57;5.60;99.90
8593;DHT22;4334;49.982;8.398;2023-02-01T01:29:25;5.70;99.90
8593;DHT22;4334;49.982;8.398;2023-02-01T01:31:51;5.60;99.90
8593;DHT22;4334;49.982;8.398;2023-02-01T01:34:18;5.70;99.90
8593;DHT22;4334;49.982;8.398;2023-02-01T01:36:45;5.70;99.90
8593;DHT22;4334;49.982;8.398;2023-02-01T01:39:12;5.70;99.90
8593;DHT22;4334;49.982;8.398;2023-02-01T01:41:38;5.70;99.90
8593;DHT22;4334;49.982;8.398;2023-02-01T01:47:14;5.70;99.90
8593;DHT22;4334;49.982;8.398;2023-02-01T01:49:42;5.70;99.90
8593;DHT22;4334;49.982;8.398;2023-02-01T01:52:10;5.70;99.90
8593;DHT22;4334;49.982;8.398;2023-02-01T01:54:39;5.70;99.90
8593;DHT22;4334;49.982;8.398;2023-02-01T01:57:10;5.70;99.90
8593;DHT22;4334;49.982;8.398;2023-02-01T01:59:40;5.70;99.90
8593;DHT22;4334;49.982;8.398;2023-02-01T02:02:08;6.10;99.90
8593;DHT22;4334;49.982;8.398;2023-02-01T02:04:36;5.60;99.90
8593;DHT22;4334;49.982;8.398;2023-02-01T02:07:06;5.60;99.90
8593;DHT22;4334;49.982;8.398;2023-02-01T02:09:34;5.70;99.90
8593;DHT22;4334;49.982;8.398;2023-02-01T02:12:01;6.90;99.90
8593;DHT22;4334;49.982;8.398;2023-02-01T02:14:28;5.60;99.90
8593;DHT22;4334;49.982;8.398;2023-02-01T02:17:04;5.60;99.90
8593;DHT22;4334;49.982;8.398;2023-02-01T02:23:10;5.60;99.90
8593;DHT22;4334;49.982;8.398;2023-02-01T02:26:11;5.60;99.90
8593;DHT22;4334;49.982;8.398;2023-02-01T02:29:12;5.60;99.90
8593;DHT22;4334;49.982;8.398;2023-02-01T02:31:56;5.50;99.90
8593;DHT22;4334;49.982;8.398;2023-02-01T02:34:27;5.50;99.90
8593;DHT22;4334;49.982;8.398;2023-02-01T02:37:03;5.60;99.90
8593;DHT22;4334;49.982;8.398;2023-02-01T02:39:38;9.10;99.90
8593;DHT22;4334;49.982;8.398;2023-02-01T02:42:13;5.60;99.90
8593;DHT22;4334;49.982;8.398;2023-02-01T02:45:02;5.60;99.90
8593;DHT22;4334;49.982;8.398;2023-02-01T02:47:57;5.60;99.90
8593;DHT22;4334;49.982;8.398;2023-02-01T02:50:35;9.30;99.90
8593;DHT22;4334;49.982;8.398;2023-02-01T02:53:25;5.60;99.90
8593;DHT22;4334;49.982;8.398;2023-02-01T02:56:12;5.60;99.90
8593;DHT22;4334;49.982;8.398;2023-02-01T02:58:58;5.60;99.90
8593;DHT22;4334;49.982;8.398;2023-02-01T03:01:43;8.00;99.90
8593;DHT22;4334;49.982;8.398;2023-02-01T03:04:28;5.60;99.90
8593;DHT22;4334;49.982;8.398;2023-02-01T03:06:56;5.60;99.90
8593;DHT22;4334;49.982;8.398;2023-02-01T03:09:26;5.60;99.90
8593;DHT22;4334;49.982;8.398;2023-02-01T03:11:56;5.60;99.90
8593;DHT22;4334;49.982;8.398;2023-02-01T03:14:43;8.70;99.90
8593;DHT22;4334;49.982;8.398;2023-02-01T03:17:15;5.60;99.90
8593;DHT22;4334;49.982;8.398;2023-02-01T03:19:45;5.60;99.90
8593;DHT22;4334;49.982;8.398;2023-02-01T03:22:18;5.60;99.90
8593;DHT22;4334;49.982;8.398;2023-02-01T03:24:49;5.50;99.90
8593;DHT22;4334;49.982;8.398;2023-02-01T03:27:20;5.60;99.90
8593;DHT22;4334;49.982;8.398;2023-02-01T03:29:52;5.50;99.90
8593;DHT22;4334;49.982;8.398;2023-02-01T03:32:21;5.60;99.90
8593;DHT22;4334;49.982;8.398;2023-02-01T03:34:49;5.50;99.90
8593;DHT22;4334;49.982;8.398;2023-02-01T03:37:24;5.50;99.90
8593;DHT22;4334;49.982;8.398;2023-02-01T03:39:56;5.50;99.90
8593;DHT22;4334;49.982;8.398;2023-02-01T03:42:28;5.50;99.90
8593;DHT22;4334;49.982;8.398;2023-02-01T03:45:01;5.50;99.90
8593;DHT22;4334;49.982;8.398;2023-02-01T03:47:34;5.50;99.90
8593;DHT22;4334;49.982;8.398;2023-02-01T03:50:05;5.50;99.90
8593;DHT22;4334;49.982;8.398;2023-02-01T03:52:38;5.40;99.90
8593;DHT22;4334;49.982;8.398;2023-02-01T03:55:07;5.40;99.90
8593;DHT22;4334;49.982;8.398;2023-02-01T03:57:38;5.40;99.90
8593;DHT22;4334;49.982;8.398;2023-02-01T04:00:14;6.50;99.90
8593;DHT22;4334;49.982;8.398;2023-02-01T04:02:41;5.40;99.90
8593;DHT22;4334;49.982;8.398;2023-02-01T04:05:08;5.40;99.90
8593;DHT22;4334;49.982;8.398;2023-02-01T04:07:36;5.40;99.90
8593;DHT22;4334;49.982;8.398;2023-02-01T04:10:04;5.40;99.90
8593;DHT22;4334;49.982;8.398;2023-02-01T04:12:31;5.40;99.90
8593;DHT22;4334;49.982;8.398;2023-02-01T04:14:58;5.40;99.90
8593;DHT22;4334;49.982;8.398;2023-02-01T04:17:25;5.40;99.90
8593;DHT22;4334;49.982;8.398;2023-02-01T04:19:51;5.40;99.90
8593;DHT22;4334;49.982;8.398;2023-02-01T04:22:18;8.10;99.90
8593;DHT22;4334;49.982;8.398;2023-02-01T04:24:47;5.50;99.90
8593;DHT22;4334;49.982;8.398;2023-02-01T04:27:13;8.70;99.90
8593;DHT22;4334;49.982;8.398;2023-02-01T04:29:40;5.50;99.90
8593;DHT22;4334;49.982;8.398;2023-02-01T04:32:07;7.00;99.90
8593;DHT22;4334;49.982;8.398;2023-02-01T04:34:34;5.50;99.90
8593;DHT22;4334;49.982;8.398;2023-02-01T04:37:01;5.50;99.90
8593;DHT22;4334;49.982;8.398;2023-02-01T04:39:28;5.50;99.90
8593;DHT22;4334;49.982;8.398;2023-02-01T04:41:56;5.50;99.90
8593;DHT22;4334;49.982;8.398;2023-02-01T04:44:23;5.50;99.90
8593;DHT22;4334;49.982;8.398;2023-02-01T04:46:50;5.40;99.90
8593;DHT22;4334;49.982;8.398;2023-02-01T04:49:17;5.50;99.90
8593;DHT22;4334;49.982;8.398;2023-02-01T04:51:44;5.50;99.90
8593;DHT22;4334;49.982;8.398;2023-02-01T04:54:10;5.50;99.90
8593;DHT22;4334;49.982;8.398;2023-02-01T04:56:38;5.50;99.90
8593;DHT22;4334;49.982;8.398;2023-02-01T04:59:06;5.50;99.90
8593;DHT22;4334;49.982;8.398;2023-02-01T05:01:33;5.50;99.90
8593;DHT22;4334;49.982;8.398;2023-02-01T05:04:00;5.50;99.90
8593;DHT22;4334;49.982;8.398;2023-02-01T05:06:27;7.40;99.90
8593;DHT22;4334;49.982;8.398;2023-02-01T05:08:53;5.50;99.90
8593;DHT22;4334;49.982;8.398;2023-02-01T05:11:21;6.30;99.90
8593;DHT22;4334;49.982;8.398;2023-02-01T05:14:06;5.50;99.90
8593;DHT22;4334;49.982;8.398;2023-02-01T05:16:33;5.50;99.90
8593;DHT22;4334;49.982;8.398;2023-02-01T05:19:00;5.50;99.90
8593;DHT22;4334;49.982;8.398;2023-02-01T05:21:27;5.50;99.90
8593;DHT22;4334;49.982;8.398;2023-02-01T05:23:54;5.50;99.90
8593;DHT22;4334;49.982;8.398;2023-02-01T05:26:36;5.50;99.90
8593;DHT22;4334;49.982;8.398;2023-02-01T05:29:04;5.50;99.90
8593;DHT22;4334;49.982;8.398;2023-02-01T05:31:32;5.50;99.90
8593;DHT22;4334;49.982;8.398;2023-02-01T05:33:59;5.50;99.90
8593;DHT22;4334;49.982;8.398;2023-02-01T05:36:26;5.50;99.90
8593;DHT22;4334;49.982;8.398;2023-02-01T05:38:53;5.50;99.90
8593;DHT22;4334;49.982;8.398;2023-02-01T05:41:20;7.90;99.90
8593;DHT22;4334;49.982;8.398;2023-02-01T05:43:47;5.50;99.90
8593;DHT22;4334;49.982;8.398;2023-02-01T05:46:14;5.40;99.90
8593;DHT22;4334;49.982;8.398;2023-02-01T05:48:43;3.60;99.90
8593;DHT22;4334;49.982;8.398;2023-02-01T05:51:10;5.40;99.90
8593;DHT22;4334;49.982;8.398;2023-02-01T05:53:37;5.40;99.90
8593;DHT22;4334;49.982;8.398;2023-02-01T05:56:05;5.30;99.90
8593;DHT22;4334;49.982;8.398;2023-02-01T05:58:32;5.30;99.90
8593;DHT22;4334;49.982;8.398;2023-02-01T06:00:59;8.50;99.90
8593;DHT22;4334;49.982;8.398;2023-02-01T06:03:26;5.30;99.90
8593;DHT22;4334;49.982;8.398;2023-02-01T06:05:54;5.10;99.90
8593;DHT22;4334;49.982;8.398;2023-02-01T06:08:21;5.10;99.90
8593;DHT22;4334;49.982;8.398;2023-02-01T06:10:49;5.00;99.90
8593;DHT22;4334;49.982;8.398;2023-02-01T06:13:17;5.00;99.90
8593;DHT22;4334;49.982;8.398;2023-02-01T06:15:45;5.00;99.90
8593;DHT22;4334;49.982;8.398;2023-02-01T06:18:12;4.90;99.90
8593;DHT22;4334;49.982;8.398;2023-02-01T06:20:41;4.90;99.90
8593;DHT22;4334;49.982;8.398;2023-02-01T06:23:09;4.90;99.90
8593;DHT22;4334;49.982;8.398;2023-02-01T06:25:36;4.90;99.90
8593;DHT22;4334;49.982;8.398;2023-02-01T06:28:03;4.80;99.90
8593;DHT22;4334;49.982;8.398;2023-02-01T06:30:31;8.30;99.90
8593;DHT22;4334;49.982;8.398;2023-02-01T06:32:58;4.90;99.90
8593;DHT22;4334;49.982;8.398;2023-02-01T06:35:24;8.50;99.90
8593;DHT22;4334;49.982;8.398;2023-02-01T06:37:52;4.70;99.90
8593;DHT22;4334;49.982;8.398;2023-02-01T06:40:20;4.70;99.90
8593;DHT22;4334;49.982;8.398;2023-02-01T06:42:48;4.70;99.90
8593;DHT22;4334;49.982;8.398;2023-02-01T06:45:15;4.60;99.90
8593;DHT22;4334;49.982;8.398;2023-02-01T06:47:42;4.60;99.90
8593;DHT22;4334;49.982;8.398;2023-02-01T06:50:09;4.50;99.90
8593;DHT22;4334;49.982;8.398;2023-02-01T06:52:36;4.50;99.90
8593;DHT22;4334;49.982;8.398;2023-02-01T06:55:04;6.00;99.90
8593;DHT22;4334;49.982;8.398;2023-02-01T06:57:32;4.70;99.90
8593;DHT22;4334;49.982;8.398;2023-02-01T07:00:01;4.80;99.90
8593;DHT22;4334;49.982;8.398;2023-02-01T07:02:28;4.80;99.90
8593;DHT22;4334;49.982;8.398;2023-02-01T07:04:55;5.00;99.90
8593;DHT22;4334;49.982;8.398;2023-02-01T07:07:22;5.20;99.90
8593;DHT22;4334;49.982;8.398;2023-02-01T07:09:49;5.30;99.90
8593;DHT22;4334;49.982;8.398;2023-02-01T07:12:15;5.30;99.90
8593;DHT22;4334;49.982;8.398;2023-02-01T07:14:44;5.30;99.90
8593;DHT22;4334;49.982;8.398;2023-02-01T07:17:10;5.20;99.90
8593;DHT22;4334;49.982;8.398;2023-02-01T07:19:37;5.20;99.90
8593;DHT22;4334;49.982;8.398;2023-02-01T07:22:04;5.20;99.90
8593;DHT22;4334;49.982;8.398;2023-02-01T07:24:31;5.30;99.90
8593;DHT22;4334;49.982;8.398;2023-02-01T07:26:57;5.20;99.90
8593;DHT22;4334;49.982;8.398;2023-02-01T07:29:24;5.20;99.90
8593;DHT22;4334;49.982;8.398;2023-02-01T07:31:52;8.30;99.90
8593;DHT22;4334;49.982;8.398;2023-02-01T07:34:19;5.30;99.90
8593;DHT22;4334;49.982;8.398;2023-02-01T07:36:46;5.30;99.90
8593;DHT22;4334;49.982;8.398;2023-02-01T07:39:13;5.40;99.90
8593;DHT22;4334;49.982;8.398;2023-02-01T07:41:40;5.40;99.90
8593;DHT22;4334;49.982;8.398;2023-02-01T07:44:06;5.50;99.90
8593;DHT22;4334;49.982;8.398;2023-02-01T07:46:33;9.50;99.90
8593;DHT22;4334;49.982;8.398;2023-02-01T07:49:01;6.00;99.90
8593;DHT22;4334;49.982;8.398;2023-02-01T07:51:28;6.20;99.90
8593;DHT22;4334;49.982;8.398;2023-02-01T07:53:55;7.50;99.90
8593;DHT22;4334;49.982;8.398;2023-02-01T07:56:22;6.60;99.90
8593;DHT22;4334;49.982;8.398;2023-02-01T07:58:49;8.80;99.90
8593;DHT22;4334;49.982;8.398;2023-02-01T08:01:18;6.80;99.90
8593;DHT22;4334;49.982;8.398;2023-02-01T08:03:51;6.90;99.90
8593;DHT22;4334;49.982;8.398;2023-02-01T08:06:20;7.00;99.90
8593;DHT22;4334;49.982;8.398;2023-02-01T08:08:47;7.30;99.90
8593;DHT22;4334;49.982;8.398;2023-02-01T08:11:16;7.40;99.90
8593;DHT22;4334;49.982;8.398;2023-02-01T08:13:43;7.40;99.90
8593;DHT22;4334;49.982;8.398;2023-02-01T08:16:11;7.70;99.90
8593;DHT22;4334;49.982;8.398;2023-02-01T08:18:39;7.70;99.90
8593;DHT22;4334;49.982;8.398;2023-02-01T08:21:08;7.70;99.90
8593;DHT22;4334;49.982;8.398;2023-02-01T08:23:38;7.70;99.90
8593;DHT22;4334;49.982;8.398;2023-02-01T08:26:07;7.70;99.90
8593;DHT22;4334;49.982;8.398;2023-02-01T08:28:34;7.70;99.90
8593;DHT22;4334;49.982;8.398;2023-02-01T08:31:06;7.20;99.90
8593;DHT22;4334;49.982;8.398;2023-02-01T08:33:33;7.10;99.90
8593;DHT22;4334;49.982;8.398;2023-02-01T08:36:02;7.30;99.90
8593;DHT22;4334;49.982;8.398;2023-02-01T08:38:29;7.70;99.90
8593;DHT22;4334;49.982;8.398;2023-02-01T08:40:57;8.10;99.90
8593;DHT22;4334;49.982;8.398;2023-02-01T08:43:24;8.50;99.90
8593;DHT22;4334;49.982;8.398;2023-02-01T08:45:54;8.80;99.90
8593;DHT22;4334;49.982;8.398;2023-02-01T08:48:21;8.80;99.90
8593;DHT22;4334;49.982;8.398;2023-02-01T08:50:48;8.20;99.90
8593;DHT22;4334;49.982;8.398;2023-02-01T08:53:15;8.30;99.90
8593;DHT22;4334;49.982;8.398;2023-02-01T08:55:42;8.10;99.90
8593;DHT22;4334;49.982;8.398;2023-02-01T08:58:10;8.00;99.90
8593;DHT22;4334;49.982;8.398;2023-02-01T09:00:36;7.90;99.90
8593;DHT22;4334;49.982;8.398;2023-02-01T09:03:03;8.00;99.90
8593;DHT22;4334;49.982;8.398;2023-02-01T09:05:30;8.30;99.90
8593;DHT22;4334;49.982;8.398;2023-02-01T09:07:57;8.30;99.90
8593;DHT22;4334;49.982;8.398;2023-02-01T09:10:24;7.90;99.90
8593;DHT22;4334;49.982;8.398;2023-02-01T09:12:51;7.60;99.90
8593;DHT22;4334;49.982;8.398;2023-02-01T09:15:20;7.40;99.90
8593;DHT22;4334;49.982;8.398;2023-02-01T09:17:46;7.30;99.90
8593;DHT22;4334;49.982;8.398;2023-02-01T09:20:14;7.30;99.90
8593;DHT22;4334;49.982;8.398;2023-02-01T09:22:41;7.30;99.90
8593;DHT22;4334;49.982;8.398;2023-02-01T09:25:08;7.30;99.90
8593;DHT22;4334;49.982;8.398;2023-02-01T09:27:35;7.30;99.90
8593;DHT22;4334;49.982;8.398;2023-02-01T09:30:03;7.30;99.90
8593;DHT22;4334;49.982;8.398;2023-02-01T09:32:32;7.20;99.90
8593;DHT22;4334;49.982;8.398;2023-02-01T09:34:59;7.20;99.90
8593;DHT22;4334;49.982;8.398;2023-02-01T09:37:26;7.20;99.90
8593;DHT22;4334;49.982;8.398;2023-02-01T09:39:53;7.20;99.90
8593;DHT22;4334;49.982;8.398;2023-02-01T09:42:30;7.30;99.90
8593;DHT22;4334;49.982;8.398;2023-02-01T09:45:21;7.30;99.90
8593;DHT22;4334;49.982;8.398;2023-02-01T09:47:55;7.40;99.90
8593;DHT22;4334;49.982;8.398;2023-02-01T09:50:29;9.30;99.90
8593;DHT22;4334;49.982;8.398;2023-02-01T09:53:01;7.40;99.90
8593;DHT22;4334;49.982;8.398;2023-02-01T09:55:34;7.80;99.90
8593;DHT22;4334;49.982;8.398;2023-02-01T09:58:05;7.30;99.90
8593;DHT22;4334;49.982;8.398;2023-02-01T10:00:35;7.30;99.90
8593;DHT22;4334;49.982;8.398;2023-02-01T10:03:04;7.40;99.90
8593;DHT22;4334;49.982;8.398;2023-02-01T10:05:44;7.40;99.90
8593;DHT22;4334;49.982;8.398;2023-02-01T10:08:19;7.40;99.90
8593;DHT22;4334;49.982;8.398;2023-02-01T10:10:52;7.40;99.90
8593;DHT22;4334;49.982;8.398;2023-02-01T10:13:33;10.50;99.90
8593;DHT22;4334;49.982;8.398;2023-02-01T10:16:13;7.30;99.90
8593;DHT22;4334;49.982;8.398;2023-02-01T10:18:55;7.40;99.90
8593;DHT22;4334;49.982;8.398;2023-02-01T10:21:33;7.50;99.90
8593;DHT22;4334;49.982;8.398;2023-02-01T10:27:18;7.50;99.90
8593;DHT22;4334;49.982;8.398;2023-02-01T10:29:50;7.60;99.90
8593;DHT22;4334;49.982;8.398;2023-02-01T10:32:21;7.60;99.90
8593;DHT22;4334;49.982;8.398;2023-02-01T10:34:53;7.50;99.90
8593;DHT22;4334;49.982;8.398;2023-02-01T10:37:26;7.50;99.90
8593;DHT22;4334;49.982;8.398;2023-02-01T10:39:54;7.50;99.90
8593;DHT22;4334;49.982;8.398;2023-02-01T10:42:25;7.60;99.90
8593;DHT22;4334;49.982;8.398;2023-02-01T10:44:53;7.60;99.90
8593;DHT22;4334;49.982;8.398;2023-02-01T10:47:21;7.70;99.90
8593;DHT22;4334;49.982;8.398;2023-02-01T10:49:54;7.70;99.90
8593;DHT22;4334;49.982;8.398;2023-02-01T10:52:31;7.70;99.90
8593;DHT22;4334;49.982;8.398;2023-02-01T10:55:29;7.60;99.90
8593;DHT22;4334;49.982;8.398;2023-02-01T10:57:57;7.60;99.90
8593;DHT22;4334;49.982;8.398;2023-02-01T11:00:25;7.60;99.90
8593;DHT22;4334;49.982;8.398;2023-02-01T11:02:53;7.50;99.90
8593;DHT22;4334;49.982;8.398;2023-02-01T11:05:24;7.50;99.90
8593;DHT22;4334;49.982;8.398;2023-02-01T11:07:54;7.50;99.90
8593;DHT22;4334;49.982;8.398;2023-02-01T11:10:46;7.50;99.90
8593;DHT22;4334;49.982;8.398;2023-02-01T11:13:15;7.50;99.90
8593;DHT22;4334;49.982;8.398;2023-02-01T11:15:46;7.40;99.90
8593;DHT22;4334;49.982;8.398;2023-02-01T11:18:26;7.60;99.90
8593;DHT22;4334;49.982;8.398;2023-02-01T11:20:55;7.30;99.90
8593;DHT22;4334;49.982;8.398;2023-02-01T11:23:24;9.40;99.90
8593;DHT22;4334;49.982;8.398;2023-02-01T11:25:54;7.30;99.90
8593;DHT22;4334;49.982;8.398;2023-02-01T11:28:23;7.30;99.90
8593;DHT22;4334;49.982;8.398;2023-02-01T11:30:53;7.40;99.90
8593;DHT22;4334;49.982;8.398;2023-02-01T11:33:25;7.40;99.90
8593;DHT22;4334;49.982;8.398;2023-02-01T11:35:56;7.50;99.90
8593;DHT22;4334;49.982;8.398;2023-02-01T11:38:28;7.70;99.90
8593;DHT22;4334;49.982;8.398;2023-02-01T11:40:57;7.70;99.90
8593;DHT22;4334;49.982;8.398;2023-02-01T11:43:37;7.70;99.90
8593;DHT22;4334;49.982;8.398;2023-02-01T11:46:17;7.60;99.90
8593;DHT22;4334;49.982;8.398;2023-02-01T11:48:47;7.60;99.90
8593;DHT22;4334;49.982;8.398;2023-02-01T11:51:33;7.60;99.90
8593;DHT22;4334;49.982;8.398;2023-02-01T11:54:20;7.60;99.90
8593;DHT22;4334;49.982;8.398;2023-02-01T11:56:58;7.70;99.90
8593;DHT22;4334;49.982;8.398;2023-02-01T11:59:54;7.70;99.90
8593;DHT22;4334;49.982;8.398;2023-02-01T12:02:40;7.70;99.90
8593;DHT22;4334;49.982;8.398;2023-02-01T12:05:25;7.70;99.90
8593;DHT22;4334;49.982;8.398;2023-02-01T12:08:11;7.60;99.90
8593;DHT22;4334;49.982;8.398;2023-02-01T12:10:50;7.70;99.90
8593;DHT22;4334;49.982;8.398;2023-02-01T12:13:36;7.80;99.90
8593;DHT22;4334;49.982;8.398;2023-02-01T12:16:15;7.90;99.90
8593;DHT22;4334;49.982;8.398;2023-02-01T12:21:45;7.80;99.90
8593;DHT22;4334;49.982;8.398;2023-02-01T12:24:42;7.90;99.90
8593;DHT22;4334;49.982;8.398;2023-02-01T12:27:41;7.90;99.90
8593;DHT22;4334;49.982;8.398;2023-02-01T12:30:39;7.90;99.90
8593;DHT22;4334;49.982;8.398;2023-02-01T12:33:14;7.90;99.90
8593;DHT22;4334;49.982;8.398;2023-02-01T12:35:52;8.00;99.90
8593;DHT22;4334;49.982;8.398;2023-02-01T12:38:32;7.90;99.90
8593;DHT22;4334;49.982;8.398;2023-02-01T12:41:14;7.90;99.90
8593;DHT22;4334;49.982;8.398;2023-02-01T12:43:48;8.00;99.90
8593;DHT22;4334;49.982;8.398;2023-02-01T12:46:19;8.40;99.90
8593;DHT22;4334;49.982;8.398;2023-02-01T12:48:54;8.10;99.90
8593;DHT22;4334;49.982;8.398;2023-02-01T12:51:26;11.70;99.90
8593;DHT22;4334;49.982;8.398;2023-02-01T12:53:57;8.20;99.90
8593;DHT22;4334;49.982;8.398;2023-02-01T12:56:33;8.30;99.90
8593;DHT22;4334;49.982;8.398;2023-02-01T12:59:04;8.40;99.90
8593;DHT22;4334;49.982;8.398;2023-02-01T13:01:35;8.50;99.90
8593;DHT22;4334;49.982;8.398;2023-02-01T13:04:08;10.30;99.90
8593;DHT22;4334;49.982;8.398;2023-02-01T13:06:41;8.20;99.90
8593;DHT22;4334;49.982;8.398;2023-02-01T13:09:16;8.20;99.90
8593;DHT22;4334;49.982;8.398;2023-02-01T13:11:46;8.20;99.90
8593;DHT22;4334;49.982;8.398;2023-02-01T13:14:25;8.10;99.90
8593;DHT22;4334;49.982;8.398;2023-02-01T13:16:59;8.20;99.90
8593;DHT22;4334;49.982;8.398;2023-02-01T13:19:29;8.20;99.90
8593;DHT22;4334;49.982;8.398;2023-02-01T13:21:59;8.30;99.90
8593;DHT22;4334;49.982;8.398;2023-02-01T13:24:35;8.50;99.90
8593;DHT22;4334;49.982;8.398;2023-02-01T13:27:04;11.20;99.90
8593;DHT22;4334;49.982;8.398;2023-02-01T13:29:33;8.40;99.90
8593;DHT22;4334;49.982;8.398;2023-02-01T13:35:12;8.50;99.90
8593;DHT22;4334;49.982;8.398;2023-02-01T13:37:54;8.50;99.90
8593;DHT22;4334;49.982;8.398;2023-02-01T13:40:35;9.10;99.90
8593;DHT22;4334;49.982;8.398;2023-02-01T13:43:11;9.00;99.90
8593;DHT22;4334;49.982;8.398;2023-02-01T13:45:44;9.40;99.90
8593;DHT22;4334;49.982;8.398;2023-02-01T13:48:21;9.00;99.90
8593;DHT22;4334;49.982;8.398;2023-02-01T13:50:52;9.60;99.90
8593;DHT22;4334;49.982;8.398;2023-02-01T13:53:25;9.30;99.90
8593;DHT22;4334;49.982;8.398;2023-02-01T13:55:58;9.00;99.90
8593;DHT22;4334;49.982;8.398;2023-02-01T13:58:33;8.90;99.90
8593;DHT22;4334;49.982;8.398;2023-02-01T14:01:32;8.70;99.90
8593;DHT22;4334;49.982;8.398;2023-02-01T14:04:00;8.50;99.90
8593;DHT22;4334;49.982;8.398;2023-02-01T14:06:44;8.50;99.90
8593;DHT22;4334;49.982;8.398;2023-02-01T14:09:17;8.40;99.90
8593;DHT22;4334;49.982;8.398;2023-02-01T14:11:47;9.10;99.90
8593;DHT22;4334;49.982;8.398;2023-02-01T14:14:49;8.30;99.90
8593;DHT22;4334;49.982;8.398;2023-02-01T14:17:34;10.90;99.90
8593;DHT22;4334;49.982;8.398;2023-02-01T14:23:13;8.20;99.90
8593;DHT22;4334;49.982;8.398;2023-02-01T14:25:41;8.20;99.90
8593;DHT22;4334;49.982;8.398;2023-02-01T14:28:19;8.20;99.90
8593;DHT22;4334;49.982;8.398;2023-02-01T14:30:50;8.30;99.90
8593;DHT22;4334;49.982;8.398;2023-02-01T14:33:22;8.30;99.90
8593;DHT22;4334;49.982;8.398;2023-02-01T14:36:03;8.40;99.90
8593;DHT22;4334;49.982;8.398;2023-02-01T14:38:32;8.50;99.90
8593;DHT22;4334;49.982;8.398;2023-02-01T14:41:17;8.60;99.90
8593;DHT22;4334;49.982;8.398;2023-02-01T14:43:50;12.00;99.90
8593;DHT22;4334;49.982;8.398;2023-02-01T14:46:18;12.40;99.90
8593;DHT22;4334;49.982;8.398;2023-02-01T14:48:47;11.60;99.90
8593;DHT22;4334;49.982;8.398;2023-02-01T14:51:16;8.60;99.90
8593;DHT22;4334;49.982;8.398;2023-02-01T14:53:44;8.50;99.90
8593;DHT22;4334;49.982;8.398;2023-02-01T14:56:15;8.40;99.90
8593;DHT22;4334;49.982;8.398;2023-02-01T14:58:48;8.40;99.90
8593;DHT22;4334;49.982;8.398;2023-02-01T15:01:21;8.30;99.90
8593;DHT22;4334;49.982;8.398;2023-02-01T15:03:56;8.30;99.90
8593;DHT22;4334;49.982;8.398;2023-02-01T15:06:36;11.20;99.90
8593;DHT22;4334;49.982;8.398;2023-02-01T15:09:07;8.20;99.90
8593;DHT22;4334;49.982;8.398;2023-02-01T15:11:54;8.20;99.90
8593;DHT22;4334;49.982;8.398;2023-02-01T15:14:21;8.10;99.90
8593;DHT22;4334;49.982;8.398;2023-02-01T15:16:49;8.10;99.90
8593;DHT22;4334;49.982;8.398;2023-02-01T15:19:19;8.10;99.90
8593;DHT22;4334;49.982;8.398;2023-02-01T15:21:49;8.10;99.90
8593;DHT22;4334;49.982;8.398;2023-02-01T15:24:21;8.10;99.90
8593;DHT22;4334;49.982;8.398;2023-02-01T15:26:49;8.10;99.90
8593;DHT22;4334;49.982;8.398;2023-02-01T15:29:17;8.20;99.90
8593;DHT22;4334;49.982;8.398;2023-02-01T15:31:46;11.10;99.90
8593;DHT22;4334;49.982;8.398;2023-02-01T15:34:16;8.20;99.90
8593;DHT22;4334;49.982;8.398;2023-02-01T15:36:44;8.10;99.90
8593;DHT22;4334;49.982;8.398;2023-02-01T15:39:22;8.20;99.90
8593;DHT22;4334;49.982;8.398;2023-02-01T15:41:53;8.20;99.90
8593;DHT22;4334;49.982;8.398;2023-02-01T15:44:29;8.20;99.90
8593;DHT22;4334;49.982;8.398;2023-02-01T15:46:57;8.20;99.90
8593;DHT22;4334;49.982;8.398;2023-02-01T15:49:29;8.10;99.90
8593;DHT22;4334;49.982;8.398;2023-02-01T15:51:57;8.10;99.90
8593;DHT22;4334;49.982;8.398;2023-02-01T15:54:26;8.20;99.90
8593;DHT22;4334;49.982;8.398;2023-02-01T15:56:58;9.30;99.90
8593;DHT22;4334;49.982;8.398;2023-02-01T15:59:31;8.20;99.90
8593;DHT22;4334;49.982;8.398;2023-02-01T16:01:58;8.20;99.90
8593;DHT22;4334;49.982;8.398;2023-02-01T16:04:28;8.20;99.90
8593;DHT22;4334;49.982;8.398;2023-02-01T16:06:58;12.00;99.90
8593;DHT22;4334;49.982;8.398;2023-02-01T16:09:36;8.10;99.90
8593;DHT22;4334;49.982;8.398;2023-02-01T16:12:04;8.10;99.90
8593;DHT22;4334;49.982;8.398;2023-02-01T16:14:46;8.10;99.90
8593;DHT22;4334;49.982;8.398;2023-02-01T16:17:12;8.10;99.90
8593;DHT22;4334;49.982;8.398;2023-02-01T16:19:40;8.10;99.90
8593;DHT22;4334;49.982;8.398;2023-02-01T16:22:07;8.10;99.90
8593;DHT22;4334;49.982;8.398;2023-02-01T16:24:34;8.10;99.90
8593;DHT22;4334;49.982;8.398;2023-02-01T16:27:01;8.10;99.90
8593;DHT22;4334;49.982;8.398;2023-02-01T16:29:28;8.10;99.90
8593;DHT22;4334;49.982;8.398;2023-02-01T16:31:55;8.10;99.90
8593;DHT22;4334;49.982;8.398;2023-02-01T16:34:22;8.10;99.90
8593;DHT22;4334;49.982;8.398;2023-02-01T16:36:50;8.10;99.90
8593;DHT22;4334;49.982;8.398;2023-02-01T16:39:19;9.50;99.90
8593;DHT22;4334;49.982;8.398;2023-02-01T16:41:46;8.00;99.90
8593;DHT22;4334;49.982;8.398;2023-02-01T16:44:13;8.00;99.90
8593;DHT22;4334;49.982;8.398;2023-02-01T16:46:42;8.90;99.90
8593;DHT22;4334;49.982;8.398;2023-02-01T16:49:18;7.90;99.90
8593;DHT22;4334;49.982;8.398;2023-02-01T16:51:45;7.80;99.90
8593;DHT22;4334;49.982;8.398;2023-02-01T16:54:14;7.70;99.90
8593;DHT22;4334;49.982;8.398;2023-02-01T16:56:42;7.70;99.90
8593;DHT22;4334;49.982;8.398;2023-02-01T16:59:09;7.60;99.90
8593;DHT22;4334;49.982;8.398;2023-02-01T17:01:36;7.50;99.90